Time;durP1;ratioP1;P1;durP2;ratioP2;P2;SDS_P1;SDS_P2;PMS_P1;PMS_P2;Temp;Humidity;BMP_temperature;BMP_pressure;BME280_temperature;BME280_humidity;BME280_pressure;Samples;Min_cycle;Max_cycle;Signal;HPM_P1;HPM_P2
2022/01/22 00:01:54;;;;;;;6.73;3.17;;;-0.90;99.90;;;;;;5055162;28;20202;-67
2022/01/22 00:04:21;;;;;;;5.77;2.90;;;-0.90;99.90;;;;;;5055257;28;20232;-67
2022/01/22 00:06:50;;;;;;;8.97;3.63;;;-0.90;99.90;;;;;;5055065;28;20297;-68
2022/01/22 00:09:24;;;;;;;6.83;3.40;;;-1.00;99.90;;;;;;5055001;28;20209;-67
2022/01/22 00:11:53;;;;;;;6.57;3.43;;;-1.00;99.90;;;;;;5054454;28;20225;-69
2022/01/22 00:14:27;;;;;;;7.43;3.67;;;-1.00;99.90;;;;;;5053907;28;20213;-68
2022/01/22 00:16:56;;;;;;;5.10;3.10;;;-1.00;99.90;;;;;;5054660;28;20312;-69
2022/01/22 00:19:24;;;;;;;6.27;3.60;;;-1.10;99.90;;;;;;5055300;28;20585;-67
2022/01/22 00:21:51;;;;;;;5.40;3.47;;;-1.10;99.90;;;;;;5054966;28;20292;-68
2022/01/22 00:24:20;;;;;;;5.70;3.27;;;-1.10;99.90;;;;;;5054555;28;20244;-68
2022/01/22 00:26:48;;;;;;;4.90;2.73;;;-1.10;99.90;;;;;;5054847;28;20202;-68
2022/01/22 00:29:16;;;;;;;5.90;3.13;;;-1.20;99.90;;;;;;5054442;28;20230;-68
2022/01/22 00:31:43;;;;;;;7.03;2.83;;;-1.20;99.90;;;;;;5053120;28;20202;-68
2022/01/22 00:34:11;;;;;;;8.27;3.40;;;-1.20;99.90;;;;;;5052825;28;20212;-68
2022/01/22 00:36:39;;;;;;;8.23;3.10;;;-1.30;99.90;;;;;;5045943;28;20216;-67
2022/01/22 00:39:06;;;;;;;6.10;3.10;;;-1.30;99.90;;;;;;5054464;28;20216;-68
2022/01/22 00:41:34;;;;;;;4.57;2.97;;;-1.30;99.90;;;;;;5054927;28;20623;-67
2022/01/22 00:44:01;;;;;;;4.60;2.73;;;-1.30;99.90;;;;;;5054102;28;20226;-68
2022/01/22 00:46:28;;;;;;;7.53;3.30;;;-1.40;99.90;;;;;;5054168;28;20580;-67
2022/01/22 00:48:55;;;;;;;4.27;2.63;;;-1.40;99.90;;;;;;5054618;28;20197;-68
2022/01/22 00:51:22;;;;;;;5.17;2.80;;;-1.40;99.90;;;;;;5053914;28;20213;-67
2022/01/22 00:53:49;;;;;;;6.57;3.30;;;-1.40;99.90;;;;;;5053379;28;20237;-68
2022/01/22 00:56:16;;;;;;;8.47;2.73;;;-1.40;99.90;;;;;;5052053;28;20659;-68
2022/01/22 00:58:44;;;;;;;5.53;2.47;;;-1.40;99.90;;;;;;5054882;28;20198;-67
2022/01/22 01:01:11;;;;;;;6.70;3.30;;;-1.40;99.90;;;;;;5054736;28;20208;-68
2022/01/22 01:03:38;;;;;;;7.30;3.23;;;-1.50;99.90;;;;;;5053137;28;20221;-67
2022/01/22 01:06:06;;;;;;;6.27;2.97;;;-1.40;99.90;;;;;;5052873;28;20713;-67
2022/01/22 01:08:34;;;;;;;6.60;2.90;;;-1.50;99.90;;;;;;5053180;28;20206;-68
2022/01/22 01:11:01;;;;;;;5.20;3.33;;;-1.50;99.90;;;;;;5054584;28;20629;-67
2022/01/22 01:13:31;;;;;;;6.77;2.83;;;-1.50;99.90;;;;;;5053258;28;20202;-68
2022/01/22 01:16:03;;;;;;;8.03;3.20;;;-1.40;99.90;;;;;;5052835;28;20198;-67
2022/01/22 01:32:22;;;;;;;7.60;3.23;;;-1.60;99.90;;;;;;5045682;28;20421;-67
2022/01/22 01:34:50;;;;;;;4.53;2.90;;;-1.60;99.90;;;;;;5053356;28;20347;-67
2022/01/22 01:37:19;;;;;;;5.53;3.20;;;-1.60;99.90;;;;;;5046043;28;20213;-68
2022/01/22 01:39:49;;;;;;;5.77;2.57;;;-1.50;99.90;;;;;;5039651;28;20201;-67
2022/01/22 01:42:20;;;;;;;5.63;3.30;;;-1.50;99.90;;;;;;5053940;28;20632;-67
2022/01/22 01:44:47;;;;;;;5.17;2.83;;;-1.50;99.90;;;;;;5052921;28;20225;-68
2022/01/22 01:47:17;;;;;;;7.03;3.20;;;-1.50;99.90;;;;;;5053142;28;20210;-67
2022/01/22 01:49:44;;;;;;;7.63;3.43;;;-1.60;99.90;;;;;;5053659;28;20229;-67
2022/01/22 01:52:17;;;;;;;5.87;3.43;;;-1.60;99.90;;;;;;5053315;28;20210;-67
2022/01/22 01:54:58;;;;;;;8.47;3.67;;;-1.60;99.90;;;;;;5053943;28;20357;-67
2022/01/22 01:57:32;;;;;;;5.73;3.33;;;-1.60;99.90;;;;;;5054038;28;20248;-67
2022/01/22 02:00:00;;;;;;;8.20;4.33;;;-1.60;99.90;;;;;;5053394;28;20202;-67
2022/01/22 02:02:32;;;;;;;6.30;3.33;;;-1.60;99.90;;;;;;5053046;28;20635;-67
2022/01/22 02:04:59;;;;;;;4.33;3.00;;;-1.60;99.90;;;;;;5052809;28;20645;-67
2022/01/22 02:07:25;;;;;;;8.97;3.57;;;-1.60;99.90;;;;;;5052744;28;20216;-67
2022/01/22 02:09:52;;;;;;;5.37;2.97;;;-1.50;99.90;;;;;;5052860;28;20289;-67
2022/01/22 02:12:37;;;;;;;4.60;2.73;;;-1.50;99.90;;;;;;5052539;28;20273;-67
2022/01/22 02:23:36;;;;;;;5.70;3.30;;;-1.40;99.90;;;;;;5045428;28;20224;-67
2022/01/22 02:26:04;;;;;;;7.73;2.80;;;-1.40;99.90;;;;;;5052606;28;20252;-67
2022/01/22 02:28:32;;;;;;;5.67;2.70;;;-1.40;99.90;;;;;;5053036;28;20241;-67
2022/01/22 02:31:07;;;;;;;4.70;2.90;;;-1.40;99.90;;;;;;5052729;28;20210;-67
2022/01/22 02:33:45;;;;;;;5.93;2.60;;;-1.40;99.90;;;;;;5053298;28;20324;-67
2022/01/22 02:36:19;;;;;;;5.07;2.60;;;-1.40;99.90;;;;;;5044719;28;20206;-67
2022/01/22 02:38:56;;;;;;;6.00;2.57;;;-1.40;99.90;;;;;;5052868;28;20205;-67
2022/01/22 02:41:25;;;;;;;3.80;2.50;;;-1.40;99.90;;;;;;5052476;28;20643;-67
2022/01/22 02:43:53;;;;;;;5.27;2.70;;;-1.40;99.90;;;;;;5051888;28;20598;-66
2022/01/22 02:46:23;;;;;;;6.77;2.97;;;-1.40;99.90;;;;;;5052868;28;20214;-67
2022/01/22 02:48:50;;;;;;;3.70;2.33;;;-1.40;99.90;;;;;;5053540;28;20208;-66
2022/01/22 02:51:17;;;;;;;7.23;2.87;;;-1.40;99.90;;;;;;5052919;28;20202;-67
2022/01/22 02:53:44;;;;;;;4.90;2.80;;;-1.40;99.90;;;;;;5051133;28;20208;-67
2022/01/22 02:56:12;;;;;;;7.63;2.73;;;-1.40;99.90;;;;;;5052445;28;20257;-67
2022/01/22 02:58:39;;;;;;;5.73;2.33;;;-1.40;99.90;;;;;;5053281;28;20301;-68
2022/01/22 03:01:06;;;;;;;9.07;2.53;;;-1.40;99.90;;;;;;5052091;28;20569;-67
2022/01/22 03:03:32;;;;;;;6.07;2.57;;;-1.40;99.90;;;;;;5051313;28;20205;-67
2022/01/22 03:06:01;;;;;;;5.57;2.53;;;-1.40;99.90;;;;;;5052339;28;20221;-67
2022/01/22 03:08:29;;;;;;;3.93;2.40;;;-1.40;99.90;;;;;;5051990;28;20296;-67
2022/01/22 03:10:56;;;;;;;4.43;2.80;;;-1.40;99.90;;;;;;5052064;28;20217;-67
2022/01/22 03:16:16;;;;;;;4.87;2.60;;;-1.40;99.90;;;;;;5030478;28;20671;-67
2022/01/22 03:18:54;;;;;;;5.10;2.47;;;-1.40;99.90;;;;;;5051961;28;20206;-67
2022/01/22 03:29:40;;;;;;;5.87;2.40;;;-1.50;99.90;;;;;;5051993;28;20213;-67
2022/01/22 03:32:09;;;;;;;5.47;2.40;;;-1.50;99.90;;;;;;5052663;28;20721;-66
2022/01/22 03:34:42;;;;;;;7.13;2.40;;;-1.50;99.90;;;;;;5051758;28;20206;-66
2022/01/22 03:37:09;;;;;;;5.30;2.13;;;-1.50;99.90;;;;;;5043296;28;20194;-66
2022/01/22 03:39:36;;;;;;;5.53;2.50;;;-1.50;99.90;;;;;;5051936;28;20210;-67
2022/01/22 03:42:03;;;;;;;5.87;2.37;;;-1.50;99.90;;;;;;5052423;28;20240;-67
2022/01/22 03:44:30;;;;;;;4.40;2.13;;;-1.50;99.90;;;;;;5051837;28;20240;-65
2022/01/22 03:46:59;;;;;;;6.27;2.27;;;-1.50;99.90;;;;;;5052508;28;20209;-67
2022/01/22 03:49:25;;;;;;;4.37;1.70;;;-1.50;99.90;;;;;;5051981;28;20210;-67
2022/01/22 03:51:52;;;;;;;4.40;1.97;;;-1.50;99.90;;;;;;5055705;28;20224;-67
2022/01/22 03:54:19;;;;;;;6.40;2.10;;;-1.50;99.90;;;;;;5054139;28;20648;-66
2022/01/22 03:56:47;;;;;;;5.67;2.33;;;-1.50;99.90;;;;;;5055177;28;20234;-67
2022/01/22 03:59:14;;;;;;;5.43;2.73;;;-1.50;99.90;;;;;;5055323;28;20586;-67
2022/01/22 04:02:06;;;;;;;6.50;2.30;;;-1.50;99.90;;;;;;5056353;28;20232;-68
2022/01/22 04:04:38;;;;;;;6.80;2.77;;;-1.50;99.90;;;;;;5055881;28;20591;-67
2022/01/22 04:09:55;;;;;;;3.97;2.23;;;-1.40;99.90;;;;;;5055494;28;20662;-67
2022/01/22 04:12:30;;;;;;;4.73;1.87;;;-1.40;99.90;;;;;;5054966;28;20605;-67
2022/01/22 04:15:01;;;;;;;6.37;2.17;;;-1.40;99.90;;;;;;5054645;28;20201;-67
2022/01/22 04:24:48;;;;;;;5.83;2.10;;;-1.40;99.90;;;;;;5055792;28;20292;-67
2022/01/22 04:25:59;;;;;;;4.53;2.30;;;-1.40;99.90;;;;;;5054725;28;20595;-67
2022/01/22 04:28:26;;;;;;;2.93;1.90;;;-1.40;99.90;;;;;;5054148;28;20229;-67
2022/01/22 04:30:53;;;;;;;9.23;2.60;;;-1.40;99.90;;;;;;5054640;28;20216;-67
2022/01/22 04:33:19;;;;;;;3.27;2.50;;;-1.50;99.90;;;;;;5054713;28;20206;-66
2022/01/22 04:35:48;;;;;;;5.00;2.10;;;-1.50;99.90;;;;;;5049266;28;20214;-67
2022/01/22 04:38:14;;;;;;;5.50;2.30;;;-1.40;99.90;;;;;;5054860;28;20204;-67
2022/01/22 04:40:41;;;;;;;3.47;1.93;;;-1.40;99.90;;;;;;5054841;28;20220;-67
2022/01/22 04:43:09;;;;;;;6.20;2.20;;;-1.40;99.90;;;;;;5054721;28;20205;-67
2022/01/22 04:45:49;;;;;;;4.40;2.00;;;-1.40;99.90;;;;;;5055119;28;20565;-67
2022/01/22 04:48:28;;;;;;;6.07;2.30;;;-1.40;99.90;;;;;;5055674;28;20205;-67
2022/01/22 04:56:24;;;;;;;5.60;2.30;;;-1.30;99.90;;;;;;5054792;28;20229;-68
2022/01/22 04:58:51;;;;;;;7.27;2.20;;;-1.40;99.90;;;;;;5053398;28;20210;-68
2022/01/22 05:01:18;;;;;;;3.67;2.23;;;-1.40;99.90;;;;;;5053944;28;20206;-67
2022/01/22 05:03:45;;;;;;;6.00;2.10;;;-1.40;99.90;;;;;;5054082;28;20269;-67
2022/01/22 05:06:13;;;;;;;4.27;2.40;;;-1.40;99.90;;;;;;5055245;28;20240;-67
2022/01/22 05:08:40;;;;;;;3.40;2.47;;;-1.40;99.90;;;;;;5054892;28;20214;-67
2022/01/22 05:11:08;;;;;;;5.83;2.23;;;-1.40;99.90;;;;;;5053674;28;20240;-68
2022/01/22 05:13:35;;;;;;;6.10;2.30;;;-1.40;99.90;;;;;;5054832;28;20629;-67
2022/01/22 05:16:02;;;;;;;9.27;2.77;;;-1.40;99.90;;;;;;5054810;28;20209;-66
2022/01/22 05:18:29;;;;;;;7.53;2.60;;;-1.30;99.90;;;;;;5053049;28;20228;-67
2022/01/22 05:21:05;;;;;;;3.17;2.20;;;-1.20;99.90;;;;;;5053947;28;20241;-67
2022/01/22 05:23:36;;;;;;;4.63;2.20;;;-1.30;99.90;;;;;;5052816;28;20240;-67
2022/01/22 05:26:06;;;;;;;4.20;2.00;;;-1.30;99.90;;;;;;5053805;28;20226;-67
2022/01/22 05:29:03;;;;;;;4.50;2.20;;;-1.20;99.90;;;;;;5053801;28;20194;-67
2022/01/22 05:31:41;;;;;;;6.97;2.40;;;-1.20;99.90;;;;;;5053133;28;20256;-68
2022/01/22 05:36:59;;;;;;;3.00;2.00;;;-1.10;99.90;;;;;;5048690;28;20201;-68
2022/01/22 05:39:29;;;;;;;4.67;2.73;;;-1.10;99.90;;;;;;5052090;28;20340;-68
2022/01/22 05:41:57;;;;;;;7.63;2.43;;;-1.10;99.90;;;;;;5054166;28;20455;-68
2022/01/22 05:44:25;;;;;;;6.47;2.17;;;-1.00;99.90;;;;;;5053686;28;20213;-68
2022/01/22 05:46:54;;;;;;;6.20;2.53;;;-1.00;99.90;;;;;;5053925;28;20197;-69
2022/01/22 05:49:23;;;;;;;4.27;2.20;;;-1.00;99.90;;;;;;5053587;28;20218;-68
2022/01/22 05:51:52;;;;;;;4.53;2.60;;;-1.00;99.90;;;;;;5053611;28;20210;-67
2022/01/22 05:54:46;;;;;;;5.67;2.30;;;-0.90;99.90;;;;;;5053733;28;20210;-67
2022/01/22 05:59:59;;;;;;;5.10;2.07;;;-0.80;99.90;;;;;;5052735;28;20201;-68
2022/01/22 06:02:26;;;;;;;4.27;1.87;;;-0.80;99.90;;;;;;5052932;28;20602;-67
2022/01/22 06:04:52;;;;;;;5.30;2.10;;;-0.80;99.90;;;;;;5052607;28;20678;-67
2022/01/22 06:07:19;;;;;;;6.13;1.93;;;-0.70;99.90;;;;;;5053294;28;22109;-68
2022/01/22 06:10:02;;;;;;;3.67;2.10;;;-0.70;99.90;;;;;;5052865;28;20209;-68
2022/01/22 06:12:42;;;;;;;5.40;2.40;;;-0.70;99.90;;;;;;5053268;28;20237;-68
2022/01/22 06:15:10;;;;;;;6.17;2.30;;;-0.70;99.90;;;;;;5045002;28;20204;-67
2022/01/22 06:17:37;;;;;;;2.90;1.40;;;-0.70;99.90;;;;;;5053313;28;20216;-67
2022/01/22 06:20:04;;;;;;;3.77;1.77;;;-0.70;99.90;;;;;;5053228;28;20206;-68
2022/01/22 06:22:31;;;;;;;2.37;1.60;;;-0.70;99.90;;;;;;5053805;28;20206;-69
2022/01/22 06:24:58;;;;;;;4.40;1.43;;;-0.70;99.90;;;;;;5052859;28;20352;-67
2022/01/22 06:27:25;;;;;;;5.40;1.80;;;-0.70;99.90;;;;;;5053377;28;20369;-68
2022/01/22 06:29:53;;;;;;;3.13;1.50;;;-0.70;99.90;;;;;;5053150;28;20216;-67
2022/01/22 06:32:20;;;;;;;5.17;2.10;;;-0.70;99.90;;;;;;5052598;28;20214;-67
2022/01/22 06:34:47;;;;;;;4.03;2.20;;;-0.70;99.90;;;;;;5051727;28;20226;-67
2022/01/22 06:37:13;;;;;;;4.43;1.60;;;-0.70;99.90;;;;;;5054080;28;20856;-68
2022/01/22 06:41:44;;;;;;;4.80;2.07;;;-0.70;99.90;;;;;;5052957;28;20577;-67
2022/01/22 06:42:29;;;;;;;3.30;1.97;;;-0.70;99.90;;;;;;5051813;28;20197;-67
2022/01/22 06:44:57;;;;;;;3.10;1.70;;;-0.70;99.90;;;;;;5052904;28;20206;-68
2022/01/22 06:47:25;;;;;;;5.13;1.80;;;-0.70;99.90;;;;;;5053170;28;20574;-68
2022/01/22 06:49:52;;;;;;;4.90;1.73;;;-0.60;99.90;;;;;;5052214;28;20214;-68
2022/01/22 06:52:19;;;;;;;4.40;2.00;;;-0.60;99.90;;;;;;5052081;28;20214;-67
2022/01/22 06:54:46;;;;;;;2.80;1.47;;;-0.60;99.90;;;;;;5051862;28;20259;-69
2022/01/22 06:57:13;;;;;;;3.40;1.67;;;-0.60;99.90;;;;;;5052416;28;20230;-67
2022/01/22 06:59:39;;;;;;;8.17;1.97;;;-0.60;99.90;;;;;;5047689;28;20209;-67
2022/01/22 07:02:08;;;;;;;4.07;1.73;;;-0.50;99.90;;;;;;5052098;28;20302;-67
2022/01/22 07:04:37;;;;;;;4.07;1.97;;;-0.40;99.90;;;;;;5052289;28;20228;-66
2022/01/22 07:07:05;;;;;;;4.70;1.80;;;-0.40;99.90;;;;;;5051971;28;20812;-68
2022/01/22 07:09:32;;;;;;;5.63;1.70;;;-0.50;99.90;;;;;;5052355;28;20665;-68
2022/01/22 07:11:59;;;;;;;3.87;1.90;;;-0.40;99.90;;;;;;5052510;28;20293;-68
2022/01/22 07:14:27;;;;;;;3.27;2.00;;;-0.20;99.90;;;;;;5051831;28;20210;-68
2022/01/22 07:16:53;;;;;;;3.20;1.93;;;-0.30;99.90;;;;;;5051493;28;20533;-67
2022/01/22 07:19:22;;;;;;;8.50;2.50;;;-0.30;99.90;;;;;;5050955;28;20850;-69
2022/01/22 07:21:57;;;;;;;6.00;2.27;;;-0.20;99.90;;;;;;5051348;28;20663;-67
2022/01/22 07:24:26;;;;;;;4.53;2.13;;;-0.20;99.90;;;;;;5055478;28;20208;-68
2022/01/22 07:26:53;;;;;;;4.73;2.37;;;-0.20;99.90;;;;;;5056058;28;20261;-67
2022/01/22 07:29:21;;;;;;;7.03;3.00;;;-0.10;99.90;;;;;;5055684;28;20210;-67
2022/01/22 07:31:47;;;;;;;6.80;2.10;;;-0.10;99.90;;;;;;5055571;28;20214;-67
2022/01/22 07:34:15;;;;;;;7.43;2.57;;;0.00;99.90;;;;;;5056867;28;20305;-69
2022/01/22 07:36:43;;;;;;;5.20;2.80;;;0.00;99.90;;;;;;5052779;28;20196;-70
2022/01/22 07:39:10;;;;;;;7.83;3.37;;;0.00;99.90;;;;;;5057309;28;20241;-70
2022/01/22 07:41:37;;;;;;;7.10;2.87;;;0.10;99.90;;;;;;5055266;28;20216;-69
2022/01/22 07:44:05;;;;;;;7.43;2.53;;;0.10;99.90;;;;;;5048647;28;20199;-69
2022/01/22 07:46:32;;;;;;;5.53;2.47;;;0.20;99.90;;;;;;5053568;28;20736;-69
2022/01/22 07:48:58;;;;;;;5.40;2.87;;;0.20;99.90;;;;;;5048902;28;20202;-70
2022/01/22 07:51:25;;;;;;;6.50;2.67;;;0.20;99.90;;;;;;5056519;28;20198;-71
2022/01/22 07:53:54;;;;;;;6.50;2.63;;;0.20;99.90;;;;;;5048995;28;20269;-69
2022/01/22 07:56:21;;;;;;;5.93;2.60;;;0.30;99.90;;;;;;5054688;28;20597;-71
2022/01/22 07:58:48;;;;;;;6.60;2.33;;;0.30;99.90;;;;;;5050875;28;20542;-71
2022/01/22 08:01:15;;;;;;;4.43;1.93;;;0.30;99.90;;;;;;5051659;28;20715;-72
2022/01/22 08:03:42;;;;;;;4.67;1.97;;;0.40;99.90;;;;;;5052961;28;20247;-71
2022/01/22 08:06:09;;;;;;;6.30;2.50;;;0.40;99.90;;;;;;5049561;28;20220;-69
2022/01/22 08:08:37;;;;;;;5.60;2.67;;;0.50;99.90;;;;;;5046984;28;20270;-70
2022/01/22 08:11:05;;;;;;;5.23;2.80;;;0.40;99.90;;;;;;5058494;28;20240;-70
2022/01/22 08:13:32;;;;;;;8.33;2.50;;;0.40;99.90;;;;;;5052075;28;20588;-72
2022/01/22 08:15:59;;;;;;;5.83;3.10;;;0.40;99.90;;;;;;5059422;28;20233;-72
2022/01/22 08:18:26;;;;;;;7.53;2.57;;;0.40;99.90;;;;;;5058534;28;20225;-71
2022/01/22 08:20:53;;;;;;;7.20;3.37;;;0.40;99.90;;;;;;5057955;28;20201;-72
2022/01/22 08:23:20;;;;;;;4.70;3.00;;;0.40;99.90;;;;;;5055810;28;20210;-71
2022/01/22 08:25:48;;;;;;;6.10;2.40;;;0.50;99.90;;;;;;5050303;28;20314;-72
2022/01/22 08:31:15;;;;;;;8.40;3.40;;;0.50;99.90;;;;;;5054311;28;20186;-72
2022/01/22 08:36:26;;;;;;;6.30;2.50;;;0.70;99.90;;;;;;5049403;28;20214;-73
2022/01/22 08:38:53;;;;;;;4.23;2.70;;;2.30;99.90;;;;;;5044206;28;20318;-72
2022/01/22 08:41:20;;;;;;;7.63;2.83;;;1.10;99.90;;;;;;5049844;28;20232;-71
2022/01/22 08:43:48;;;;;;;3.30;2.03;;;1.40;99.90;;;;;;5057265;28;20206;-71
2022/01/22 08:46:15;;;;;;;6.43;2.60;;;1.60;99.90;;;;;;5056508;28;20283;-73
2022/01/22 08:48:42;;;;;;;5.67;2.33;;;1.60;99.90;;;;;;5056885;28;20285;-72
2022/01/22 08:51:09;;;;;;;4.90;2.50;;;1.60;99.90;;;;;;5057319;28;20734;-74
2022/01/22 08:53:36;;;;;;;4.67;2.00;;;1.50;99.90;;;;;;5053706;28;20222;-75
2022/01/22 08:56:05;;;;;;;5.53;2.53;;;1.50;99.90;;;;;;5057501;28;20202;-74
2022/01/22 08:58:31;;;;;;;4.67;2.47;;;1.50;99.90;;;;;;5051811;28;20252;-70
2022/01/22 09:01:00;;;;;;;3.67;2.43;;;1.40;99.90;;;;;;5057137;28;20210;-73
2022/01/22 09:03:28;;;;;;;4.63;2.40;;;1.40;99.90;;;;;;5050313;28;20231;-71
2022/01/22 09:05:55;;;;;;;3.40;2.17;;;1.40;99.90;;;;;;5057633;28;20239;-71
2022/01/22 09:08:23;;;;;;;6.40;2.63;;;1.50;99.90;;;;;;5049798;28;20683;-74
2022/01/22 09:10:52;;;;;;;3.20;2.33;;;1.50;99.90;;;;;;5057855;28;20205;-72
2022/01/22 09:13:19;;;;;;;5.13;2.40;;;1.70;99.90;;;;;;5057836;28;20237;-76
2022/01/22 09:15:46;;;;;;;6.20;3.07;;;1.90;99.90;;;;;;5058464;28;20679;-73
2022/01/22 09:18:14;;;;;;;4.53;2.13;;;2.50;99.90;;;;;;5056558;28;20194;-73
2022/01/22 09:21:01;;;;;;;3.77;2.53;;;2.70;99.90;;;;;;5055411;28;20229;-72
2022/01/22 09:23:29;;;;;;;3.27;1.97;;;2.80;99.90;;;;;;5053182;28;20182;-71
2022/01/22 09:25:57;;;;;;;2.90;2.10;;;2.80;99.90;;;;;;5046953;28;20243;-73
2022/01/22 09:28:24;;;;;;;2.33;1.63;;;3.10;99.90;;;;;;5053005;28;20220;-72
2022/01/22 09:30:51;;;;;;;2.50;1.70;;;3.50;99.90;;;;;;5055368;28;20206;-71
2022/01/22 09:33:21;;;;;;;1.93;1.20;;;3.70;99.90;;;;;;5054569;28;20313;-72
2022/01/22 09:35:48;;;;;;;4.27;1.33;;;3.90;99.90;;;;;;5052336;28;20207;-71
2022/01/22 09:38:17;;;;;;;2.73;1.23;;;3.80;99.90;;;;;;5050725;28;20586;-72
2022/01/22 09:40:44;;;;;;;1.83;1.67;;;3.60;99.90;;;;;;5055550;28;20214;-72
2022/01/22 09:43:13;;;;;;;2.10;1.50;;;3.30;99.90;;;;;;5052565;28;20234;-71
2022/01/22 09:45:40;;;;;;;2.33;1.50;;;3.20;99.90;;;;;;5046848;28;20202;-72
2022/01/22 09:48:07;;;;;;;3.33;1.80;;;3.30;99.90;;;;;;5054597;28;20293;-71
2022/01/22 09:50:39;;;;;;;2.13;1.40;;;4.70;99.90;;;;;;5055032;28;20201;-71
2022/01/22 09:53:06;;;;;;;1.97;1.13;;;6.90;99.90;;;;;;5055533;28;20670;-71
2022/01/22 09:55:33;;;;;;;5.00;1.23;;;8.10;97.70;;;;;;5053848;28;20220;-72
2022/01/22 09:58:00;;;;;;;2.63;1.60;;;7.90;89.10;;;;;;5050379;28;20300;-71
2022/01/22 10:00:27;;;;;;;2.03;1.60;;;7.20;83.00;;;;;;5053937;28;20210;-72
2022/01/22 10:02:56;;;;;;;1.87;1.30;;;6.60;84.80;;;;;;5053183;28;20226;-70
2022/01/22 10:05:29;;;;;;;3.20;1.50;;;6.60;91.00;;;;;;5054715;28;20301;-71
2022/01/22 10:08:17;;;;;;;1.87;1.40;;;6.40;84.90;;;;;;5054433;28;20226;-71
2022/01/22 10:10:45;;;;;;;2.37;1.40;;;5.80;83.60;;;;;;5051625;28;20248;-71
2022/01/22 10:13:12;;;;;;;1.53;1.40;;;5.40;83.90;;;;;;5047218;28;20940;-73
2022/01/22 10:15:39;;;;;;;2.53;1.57;;;5.00;85.50;;;;;;5052575;28;20210;-73
2022/01/22 10:18:07;;;;;;;1.43;1.30;;;4.60;86.70;;;;;;5052278;28;20245;-73
2022/01/22 10:20:39;;;;;;;2.37;1.60;;;4.40;89.20;;;;;;5054870;28;20733;-73
2022/01/22 10:23:17;;;;;;;3.20;1.80;;;4.50;92.50;;;;;;5048305;28;20256;-71
2022/01/22 10:25:49;;;;;;;4.20;1.70;;;4.40;90.90;;;;;;5050071;28;20232;-71
2022/01/22 10:28:21;;;;;;;2.93;1.80;;;4.30;90.40;;;;;;5055072;28;20222;-71
2022/01/22 10:30:51;;;;;;;2.50;1.77;;;4.00;90.60;;;;;;5056015;28;20210;-71
2022/01/22 10:33:27;;;;;;;2.67;1.80;;;3.70;90.80;;;;;;5054979;28;20197;-73
2022/01/22 10:35:55;;;;;;;4.43;1.60;;;3.70;91.40;;;;;;5056602;28;20214;-73
2022/01/22 10:38:23;;;;;;;4.17;1.73;;;3.50;91.80;;;;;;5049962;28;20663;-70
2022/01/22 10:40:56;;;;;;;1.87;1.30;;;3.40;92.30;;;;;;5050706;28;20757;-75
2022/01/22 10:43:29;;;;;;;1.93;1.20;;;3.40;94.20;;;;;;5054538;28;20198;-71
2022/01/22 10:46:09;;;;;;;2.17;1.33;;;3.50;94.70;;;;;;5049217;28;20273;-73
2022/01/22 10:48:38;;;;;;;1.33;1.03;;;3.70;93.80;;;;;;5052936;28;20217;-72
2022/01/22 10:51:10;;;;;;;1.67;1.17;;;4.00;99.90;;;;;;5055851;28;20213;-74
2022/01/22 10:53:57;;;;;;;2.93;1.50;;;6.40;99.90;;;;;;5057113;28;20206;-73
2022/01/22 10:56:26;;;;;;;2.50;1.27;;;10.30;93.60;;;;;;5056738;28;20233;-71
2022/01/22 10:58:57;;;;;;;2.27;1.20;;;12.70;75.60;;;;;;5056839;28;20300;-69
2022/01/22 11:01:25;;;;;;;1.83;1.30;;;15.70;61.50;;;;;;5056405;28;20257;-72
2022/01/22 11:04:10;;;;;;;1.67;1.20;;;18.60;50.60;;;;;;5058689;28;20210;-76
2022/01/22 11:06:38;;;;;;;2.27;1.43;;;21.40;45.10;;;;;;5058921;28;20312;-72
2022/01/22 11:09:07;;;;;;;2.80;1.30;;;22.00;39.10;;;;;;5058903;28;20198;-72
2022/01/22 11:11:37;;;;;;;2.43;1.37;;;21.10;36.50;;;;;;5057327;28;20241;-76
2022/01/22 11:14:06;;;;;;;1.73;1.60;;;19.40;34.70;;;;;;5041206;28;20241;-74
2022/01/22 11:16:33;;;;;;;3.00;1.87;;;17.70;38.10;;;;;;5056798;28;20201;-74
2022/01/22 11:19:01;;;;;;;2.43;1.87;;;15.90;38.10;;;;;;5056561;28;20298;-74
2022/01/22 11:21:28;;;;;;;2.33;1.57;;;14.20;39.70;;;;;;5055827;28;20214;-74
2022/01/22 11:23:55;;;;;;;3.67;2.60;;;12.60;41.50;;;;;;5056261;28;20202;-74
2022/01/22 11:26:24;;;;;;;2.90;2.20;;;11.30;43.60;;;;;;5056038;28;20310;-74
2022/01/22 11:28:54;;;;;;;3.57;2.40;;;10.50;46.10;;;;;;5056312;28;20209;-74
2022/01/22 11:31:24;;;;;;;3.20;2.63;;;11.00;56.70;;;;;;5056103;28;20213;-73
2022/01/22 11:33:53;;;;;;;4.27;2.50;;;11.60;48.10;;;;;;5056876;28;20201;-73
2022/01/22 11:36:26;;;;;;;2.73;1.90;;;12.30;49.40;;;;;;5054557;28;20210;-74
2022/01/22 11:38:55;;;;;;;2.37;1.63;;;14.10;50.80;;;;;;5056252;28;20208;-74
2022/01/22 11:41:24;;;;;;;2.63;1.73;;;17.00;45.60;;;;;;5056519;28;20236;-75
2022/01/22 11:44:05;;;;;;;2.00;1.80;;;19.20;40.90;;;;;;5056432;28;20270;-74
2022/01/22 11:46:35;;;;;;;1.93;1.60;;;21.40;38.80;;;;;;5052728;28;20209;-74
2022/01/22 11:49:28;;;;;;;2.80;1.85;;;23.70;35.20;;;;;;5054535;28;20202;-72
2022/01/22 11:52:15;;;;;;;2.75;1.92;;;25.50;33.90;;;;;;5056042;28;20201;-73
2022/01/22 11:54:51;;;;;;;2.10;1.65;;;27.20;31.10;;;;;;5056080;28;20210;-74
2022/01/22 11:57:20;;;;;;;3.35;1.40;;;28.70;29.10;;;;;;5055072;28;20627;-74
2022/01/22 11:59:50;;;;;;;2.10;1.42;;;29.30;28.00;;;;;;5054902;28;20301;-74
2022/01/22 12:02:18;;;;;;;1.73;1.63;;;29.90;27.30;;;;;;5055401;28;20285;-74
2022/01/22 12:04:50;;;;;;;1.90;1.70;;;30.30;26.70;;;;;;5055539;28;20206;-74
2022/01/22 12:07:25;;;;;;;2.92;2.08;;;30.70;26.60;;;;;;5054483;28;20234;-73
2022/01/22 12:16:12;;;;;;;2.08;1.67;;;22.30;27.10;;;;;;5058022;28;20227;-73
2022/01/22 12:18:45;;;;;;;1.90;1.60;;;19.30;28.40;;;;;;5058462;28;20202;-73
2022/01/22 12:21:32;;;;;;;2.73;1.70;;;17.20;30.00;;;;;;5058238;28;20652;-74
2022/01/22 12:24:01;;;;;;;1.87;1.63;;;15.10;32.10;;;;;;5058144;28;20216;-73
2022/01/22 12:26:42;;;;;;;2.50;1.80;;;13.50;33.90;;;;;;5058745;28;20214;-73
2022/01/22 12:30:00;;;;;;;2.10;1.50;;;11.90;35.70;;;;;;5057969;28;20296;-73
2022/01/22 12:32:34;;;;;;;2.67;1.83;;;10.50;37.90;;;;;;5058364;28;20281;-73
2022/01/22 12:35:17;;;;;;;3.03;1.70;;;9.40;41.00;;;;;;5057904;28;20198;-74
2022/01/22 12:37:52;;;;;;;3.20;2.00;;;8.60;42.50;;;;;;5055845;28;20256;-73
2022/01/22 12:40:31;;;;;;;1.87;1.57;;;8.00;43.70;;;;;;5057779;28;20620;-73
2022/01/22 12:43:07;;;;;;;2.83;1.80;;;7.40;44.90;;;;;;5059854;28;20217;-73
2022/01/22 12:45:38;;;;;;;3.97;2.07;;;7.00;45.90;;;;;;5058967;28;20293;-73
2022/01/22 12:48:05;;;;;;;3.10;1.70;;;6.50;46.90;;;;;;5058229;28;20256;-73
2022/01/22 12:50:36;;;;;;;2.57;1.67;;;6.10;47.90;;;;;;5058321;28;20677;-72
2022/01/22 12:53:13;;;;;;;2.53;1.70;;;5.70;49.30;;;;;;5058058;28;20635;-74
2022/01/22 12:58:39;;;;;;;2.97;1.70;;;4.90;50.50;;;;;;5056029;28;20189;-73
2022/01/22 13:01:15;;;;;;;2.23;1.70;;;4.60;51.40;;;;;;5045399;28;20631;-73
2022/01/22 13:03:43;;;;;;;3.60;1.80;;;4.40;51.70;;;;;;5057892;28;20201;-72
2022/01/22 13:06:10;;;;;;;3.83;1.90;;;4.20;52.90;;;;;;5060110;28;20198;-73
2022/01/22 13:08:37;;;;;;;3.83;1.80;;;4.00;53.40;;;;;;5058227;28;20366;-73
2022/01/22 13:11:07;;;;;;;2.67;1.60;;;3.90;54.10;;;;;;5057453;28;20245;-73
2022/01/22 13:13:35;;;;;;;2.73;1.90;;;3.70;54.60;;;;;;5058436;28;20241;-72
2022/01/22 13:16:04;;;;;;;3.03;1.80;;;3.60;54.80;;;;;;5058432;28;20205;-72
2022/01/22 13:18:44;;;;;;;2.33;1.60;;;3.50;55.20;;;;;;5058908;28;20308;-74
2022/01/22 13:21:12;;;;;;;3.17;1.90;;;3.50;55.60;;;;;;5056403;28;20205;-73
2022/01/22 13:23:40;;;;;;;2.10;1.60;;;3.40;55.90;;;;;;5057948;28;20209;-73
2022/01/22 13:26:08;;;;;;;3.07;1.90;;;3.40;56.30;;;;;;5057294;28;20210;-73
2022/01/22 13:28:37;;;;;;;2.47;1.70;;;3.30;56.60;;;;;;5057085;28;20225;-73
2022/01/22 13:31:14;;;;;;;3.10;1.90;;;3.30;57.10;;;;;;5058207;28;20213;-73
2022/01/22 13:33:51;;;;;;;4.60;1.67;;;3.30;57.40;;;;;;5056641;28;20209;-73
2022/01/22 13:36:26;;;;;;;2.30;1.63;;;3.30;57.50;;;;;;5057505;28;20197;-73
2022/01/22 13:39:21;;;;;;;3.20;1.73;;;3.20;57.60;;;;;;5058134;28;20626;-72
2022/01/22 13:47:47;;;;;;;2.33;1.53;;;3.00;58.10;;;;;;5048588;28;20221;-73
2022/01/22 13:50:17;;;;;;;4.27;2.10;;;3.00;58.40;;;;;;5053298;28;20225;-73
2022/01/22 13:52:44;;;;;;;4.30;2.60;;;2.90;58.80;;;;;;5056705;28;20578;-73
2022/01/22 13:55:14;;;;;;;2.83;1.80;;;2.90;59.00;;;;;;5057348;28;20214;-74
2022/01/22 13:57:44;;;;;;;4.00;2.27;;;2.80;59.40;;;;;;5057673;28;20305;-73
2022/01/22 14:00:14;;;;;;;4.17;2.10;;;2.80;59.80;;;;;;5055987;28;20206;-73
2022/01/22 14:03:03;;;;;;;4.70;2.17;;;2.70;60.20;;;;;;5043574;28;20198;-73
2022/01/22 14:05:32;;;;;;;3.87;1.80;;;2.70;60.70;;;;;;5056516;28;20646;-73
2022/01/22 14:08:01;;;;;;;3.80;2.20;;;2.60;60.90;;;;;;5057114;28;20758;-73
2022/01/22 14:10:29;;;;;;;3.40;2.00;;;2.60;61.10;;;;;;5056592;28;20627;-73
2022/01/22 14:13:05;;;;;;;3.03;1.90;;;2.50;61.30;;;;;;5056297;28;20312;-73
2022/01/22 14:15:35;;;;;;;4.03;2.20;;;2.50;61.50;;;;;;5055862;28;20212;-72
2022/01/22 14:20:52;;;;;;;2.90;2.13;;;2.30;61.60;;;;;;5055416;28;20288;-73
2022/01/22 14:23:20;;;;;;;5.83;2.10;;;2.30;62.10;;;;;;5057366;28;20216;-74